Terminal Aerodrome Forecast
Issued by NWS

Home | Current Version | Previous Version | Graphics & Text | Print | Product List | Glossary On
Versions: 1 2 3 4 5 6 7 8 9 10 11 12 13 14 15 16 17 18 19 20 21 22 23 24 25 26 27
000
FTUS45 KGGW 261700
TAFOLF
TAF
KOLF 261720Z 2618/2718 32008KT P6SM OVC025
     FM262200 36007KT P6SM BKN050
     FM270400 VRB04KT P6SM VCSH OVC020 PROB30 2705/2709 5SM -RA
      OVC015
     FM270900 VRB04KT 4SM BR OVC005
     FM271600 VRB04KT P6SM SCT015 OVC070=

USA.gov is the U.S. government's official web portal to all federal, state and local government web resources and services.